sensor_id;sensor_type;location;lat;lon;timestamp;temperature;humidity
20827;DHT22;10574;52.508;13.236;2023-06-19T00:02:19;18.40;99.90
20827;DHT22;10574;52.508;13.236;2023-06-19T00:04:47;18.40;99.90
20827;DHT22;10574;52.508;13.236;2023-06-19T00:07:15;18.40;99.90
20827;DHT22;10574;52.508;13.236;2023-06-19T00:09:42;18.40;99.90
20827;DHT22;10574;52.508;13.236;2023-06-19T00:12:10;18.40;99.90
20827;DHT22;10574;52.508;13.236;2023-06-19T00:14:38;18.40;99.90
20827;DHT22;10574;52.508;13.236;2023-06-19T00:17:05;18.40;99.90
20827;DHT22;10574;52.508;13.236;2023-06-19T00:19:33;18.40;99.90
20827;DHT22;10574;52.508;13.236;2023-06-19T00:22:04;18.40;99.90
20827;DHT22;10574;52.508;13.236;2023-06-19T00:24:31;18.40;99.90
20827;DHT22;10574;52.508;13.236;2023-06-19T00:26:59;18.40;99.90
20827;DHT22;10574;52.508;13.236;2023-06-19T00:29:30;18.40;99.90
20827;DHT22;10574;52.508;13.236;2023-06-19T00:31:58;18.50;99.90
20827;DHT22;10574;52.508;13.236;2023-06-19T00:34:28;18.50;99.90
20827;DHT22;10574;52.508;13.236;2023-06-19T00:36:56;18.50;99.90
20827;DHT22;10574;52.508;13.236;2023-06-19T00:39:29;18.50;99.90
20827;DHT22;10574;52.508;13.236;2023-06-19T00:41:55;18.50;99.90
20827;DHT22;10574;52.508;13.236;2023-06-19T00:44:23;18.60;99.90
20827;DHT22;10574;52.508;13.236;2023-06-19T00:46:58;18.60;99.90
20827;DHT22;10574;52.508;13.236;2023-06-19T00:49:28;18.60;99.90
20827;DHT22;10574;52.508;13.236;2023-06-19T00:51:56;18.60;99.90
20827;DHT22;10574;52.508;13.236;2023-06-19T00:54:24;18.70;99.90
20827;DHT22;10574;52.508;13.236;2023-06-19T00:56:52;18.70;99.90
20827;DHT22;10574;52.508;13.236;2023-06-19T00:59:20;18.60;99.90
20827;DHT22;10574;52.508;13.236;2023-06-19T01:01:49;18.60;99.90
20827;DHT22;10574;52.508;13.236;2023-06-19T01:04:17;18.60;99.90
20827;DHT22;10574;52.508;13.236;2023-06-19T01:07:00;18.50;99.90
20827;DHT22;10574;52.508;13.236;2023-06-19T01:09:33;18.50;99.90
20827;DHT22;10574;52.508;13.236;2023-06-19T01:12:12;18.50;99.90
20827;DHT22;10574;52.508;13.236;2023-06-19T01:14:40;18.50;99.90
20827;DHT22;10574;52.508;13.236;2023-06-19T01:17:08;18.50;99.90
20827;DHT22;10574;52.508;13.236;2023-06-19T01:19:36;18.50;99.90
20827;DHT22;10574;52.508;13.236;2023-06-19T01:22:05;18.50;99.90
20827;DHT22;10574;52.508;13.236;2023-06-19T01:24:33;18.40;99.90
20827;DHT22;10574;52.508;13.236;2023-06-19T01:27:00;18.40;99.90
20827;DHT22;10574;52.508;13.236;2023-06-19T01:29:28;18.40;99.90
20827;DHT22;10574;52.508;13.236;2023-06-19T01:32:05;18.40;99.90
20827;DHT22;10574;52.508;13.236;2023-06-19T01:34:33;18.30;99.90
20827;DHT22;10574;52.508;13.236;2023-06-19T01:37:03;18.30;99.90
20827;DHT22;10574;52.508;13.236;2023-06-19T01:39:32;18.20;99.90
20827;DHT22;10574;52.508;13.236;2023-06-19T01:42:03;18.30;99.90
20827;DHT22;10574;52.508;13.236;2023-06-19T01:44:31;18.20;99.90
20827;DHT22;10574;52.508;13.236;2023-06-19T01:46:59;18.20;99.90
20827;DHT22;10574;52.508;13.236;2023-06-19T01:49:27;18.20;99.90
20827;DHT22;10574;52.508;13.236;2023-06-19T01:51:54;18.20;99.90
20827;DHT22;10574;52.508;13.236;2023-06-19T01:54:23;18.30;99.90
20827;DHT22;10574;52.508;13.236;2023-06-19T01:56:51;18.20;99.90
20827;DHT22;10574;52.508;13.236;2023-06-19T01:59:19;18.30;99.90
20827;DHT22;10574;52.508;13.236;2023-06-19T02:01:48;18.30;99.90
20827;DHT22;10574;52.508;13.236;2023-06-19T02:04:16;18.30;99.90
20827;DHT22;10574;52.508;13.236;2023-06-19T02:06:44;18.30;99.90
20827;DHT22;10574;52.508;13.236;2023-06-19T02:09:12;18.30;99.90
20827;DHT22;10574;52.508;13.236;2023-06-19T02:11:39;18.30;99.90
20827;DHT22;10574;52.508;13.236;2023-06-19T02:14:09;18.30;99.90
20827;DHT22;10574;52.508;13.236;2023-06-19T02:16:37;18.30;99.90
20827;DHT22;10574;52.508;13.236;2023-06-19T02:19:06;18.30;99.90
20827;DHT22;10574;52.508;13.236;2023-06-19T02:21:34;18.30;99.90
20827;DHT22;10574;52.508;13.236;2023-06-19T02:24:02;18.20;99.90
20827;DHT22;10574;52.508;13.236;2023-06-19T02:26:32;18.20;99.90
20827;DHT22;10574;52.508;13.236;2023-06-19T02:29:00;18.20;99.90
20827;DHT22;10574;52.508;13.236;2023-06-19T02:31:27;18.20;99.90
20827;DHT22;10574;52.508;13.236;2023-06-19T02:33:55;18.20;99.90
20827;DHT22;10574;52.508;13.236;2023-06-19T02:36:23;18.20;99.90
20827;DHT22;10574;52.508;13.236;2023-06-19T02:38:50;18.20;99.90
20827;DHT22;10574;52.508;13.236;2023-06-19T02:41:18;18.20;99.90
20827;DHT22;10574;52.508;13.236;2023-06-19T02:43:46;18.20;99.90
20827;DHT22;10574;52.508;13.236;2023-06-19T02:46:13;18.10;99.90
20827;DHT22;10574;52.508;13.236;2023-06-19T02:48:41;18.10;99.90
20827;DHT22;10574;52.508;13.236;2023-06-19T02:51:09;18.10;99.90
20827;DHT22;10574;52.508;13.236;2023-06-19T02:53:36;18.20;99.90
20827;DHT22;10574;52.508;13.236;2023-06-19T02:56:04;18.10;99.90
20827;DHT22;10574;52.508;13.236;2023-06-19T02:58:32;18.10;99.90
20827;DHT22;10574;52.508;13.236;2023-06-19T03:01:01;18.10;99.90
20827;DHT22;10574;52.508;13.236;2023-06-19T03:03:29;18.10;99.90
20827;DHT22;10574;52.508;13.236;2023-06-19T03:05:57;18.10;99.90
20827;DHT22;10574;52.508;13.236;2023-06-19T03:08:26;18.10;99.90
20827;DHT22;10574;52.508;13.236;2023-06-19T03:10:53;18.10;99.90
20827;DHT22;10574;52.508;13.236;2023-06-19T03:13:21;18.10;99.90
20827;DHT22;10574;52.508;13.236;2023-06-19T03:15:48;18.10;99.90
20827;DHT22;10574;52.508;13.236;2023-06-19T03:18:16;18.20;99.90
20827;DHT22;10574;52.508;13.236;2023-06-19T03:20:44;18.20;99.90
20827;DHT22;10574;52.508;13.236;2023-06-19T03:23:13;18.20;99.90
20827;DHT22;10574;52.508;13.236;2023-06-19T03:25:40;18.30;99.90
20827;DHT22;10574;52.508;13.236;2023-06-19T03:28:09;18.30;99.90
20827;DHT22;10574;52.508;13.236;2023-06-19T03:30:37;18.40;99.90
20827;DHT22;10574;52.508;13.236;2023-06-19T03:33:04;18.40;99.90
20827;DHT22;10574;52.508;13.236;2023-06-19T03:35:32;18.40;99.90
20827;DHT22;10574;52.508;13.236;2023-06-19T03:38:01;18.40;99.90
20827;DHT22;10574;52.508;13.236;2023-06-19T03:40:29;18.40;99.90
20827;DHT22;10574;52.508;13.236;2023-06-19T03:42:58;18.40;99.90
20827;DHT22;10574;52.508;13.236;2023-06-19T03:45:25;18.50;99.90
20827;DHT22;10574;52.508;13.236;2023-06-19T03:47:53;18.50;99.90
20827;DHT22;10574;52.508;13.236;2023-06-19T03:50:21;18.60;99.90
20827;DHT22;10574;52.508;13.236;2023-06-19T03:52:48;18.60;99.90
20827;DHT22;10574;52.508;13.236;2023-06-19T03:55:17;18.60;99.90
20827;DHT22;10574;52.508;13.236;2023-06-19T03:57:44;18.50;99.90
20827;DHT22;10574;52.508;13.236;2023-06-19T04:00:14;18.60;99.90
20827;DHT22;10574;52.508;13.236;2023-06-19T04:02:42;18.60;99.90
20827;DHT22;10574;52.508;13.236;2023-06-19T04:05:09;18.50;99.90
20827;DHT22;10574;52.508;13.236;2023-06-19T04:07:37;18.50;99.90
20827;DHT22;10574;52.508;13.236;2023-06-19T04:10:06;18.50;99.90
20827;DHT22;10574;52.508;13.236;2023-06-19T04:12:33;18.60;99.90
20827;DHT22;10574;52.508;13.236;2023-06-19T04:15:01;18.50;99.90
20827;DHT22;10574;52.508;13.236;2023-06-19T04:17:29;18.50;99.90
20827;DHT22;10574;52.508;13.236;2023-06-19T04:19:56;18.60;99.90
20827;DHT22;10574;52.508;13.236;2023-06-19T04:22:24;18.60;99.90
20827;DHT22;10574;52.508;13.236;2023-06-19T04:24:52;18.60;99.90
20827;DHT22;10574;52.508;13.236;2023-06-19T04:27:19;18.60;99.90
20827;DHT22;10574;52.508;13.236;2023-06-19T04:29:47;18.60;99.90
20827;DHT22;10574;52.508;13.236;2023-06-19T04:32:15;18.60;99.90
20827;DHT22;10574;52.508;13.236;2023-06-19T04:34:44;18.60;99.90
20827;DHT22;10574;52.508;13.236;2023-06-19T04:37:12;18.60;99.90
20827;DHT22;10574;52.508;13.236;2023-06-19T04:39:40;18.60;99.90
20827;DHT22;10574;52.508;13.236;2023-06-19T04:42:08;18.60;99.90
20827;DHT22;10574;52.508;13.236;2023-06-19T04:44:38;18.60;99.90
20827;DHT22;10574;52.508;13.236;2023-06-19T04:47:06;18.80;99.90
20827;DHT22;10574;52.508;13.236;2023-06-19T04:49:34;18.80;99.90
20827;DHT22;10574;52.508;13.236;2023-06-19T04:52:02;18.90;99.90
20827;DHT22;10574;52.508;13.236;2023-06-19T04:54:29;18.90;99.90
20827;DHT22;10574;52.508;13.236;2023-06-19T04:56:59;18.90;99.90
20827;DHT22;10574;52.508;13.236;2023-06-19T04:59:29;18.90;99.90
20827;DHT22;10574;52.508;13.236;2023-06-19T05:01:57;18.80;99.90
20827;DHT22;10574;52.508;13.236;2023-06-19T05:04:29;18.90;99.90
20827;DHT22;10574;52.508;13.236;2023-06-19T05:06:56;18.90;99.90
20827;DHT22;10574;52.508;13.236;2023-06-19T05:09:23;18.90;99.90
20827;DHT22;10574;52.508;13.236;2023-06-19T05:11:51;19.00;99.90
20827;DHT22;10574;52.508;13.236;2023-06-19T05:14:19;19.00;99.90
20827;DHT22;10574;52.508;13.236;2023-06-19T05:16:47;19.00;99.90
20827;DHT22;10574;52.508;13.236;2023-06-19T05:19:14;19.00;99.90
20827;DHT22;10574;52.508;13.236;2023-06-19T05:21:44;19.10;99.90
20827;DHT22;10574;52.508;13.236;2023-06-19T05:24:13;19.10;99.90
20827;DHT22;10574;52.508;13.236;2023-06-19T05:26:48;19.10;99.90
20827;DHT22;10574;52.508;13.236;2023-06-19T05:29:21;19.20;99.90
20827;DHT22;10574;52.508;13.236;2023-06-19T05:31:51;19.20;99.90
20827;DHT22;10574;52.508;13.236;2023-06-19T05:34:19;19.20;99.90
20827;DHT22;10574;52.508;13.236;2023-06-19T05:36:49;19.30;99.90
20827;DHT22;10574;52.508;13.236;2023-06-19T05:39:17;19.30;99.90
20827;DHT22;10574;52.508;13.236;2023-06-19T05:41:45;19.40;99.90
20827;DHT22;10574;52.508;13.236;2023-06-19T05:44:13;19.40;99.90
20827;DHT22;10574;52.508;13.236;2023-06-19T05:46:43;19.40;99.90
20827;DHT22;10574;52.508;13.236;2023-06-19T05:49:10;19.30;99.90
20827;DHT22;10574;52.508;13.236;2023-06-19T05:51:38;19.30;99.90
20827;DHT22;10574;52.508;13.236;2023-06-19T05:54:06;19.40;99.90
20827;DHT22;10574;52.508;13.236;2023-06-19T05:56:33;19.50;99.90
20827;DHT22;10574;52.508;13.236;2023-06-19T05:59:02;19.50;99.90
20827;DHT22;10574;52.508;13.236;2023-06-19T06:01:31;19.60;99.90
20827;DHT22;10574;52.508;13.236;2023-06-19T06:03:58;19.60;99.90
20827;DHT22;10574;52.508;13.236;2023-06-19T06:06:28;19.80;99.90
20827;DHT22;10574;52.508;13.236;2023-06-19T06:08:55;19.80;99.90
20827;DHT22;10574;52.508;13.236;2023-06-19T06:11:23;19.80;99.90
20827;DHT22;10574;52.508;13.236;2023-06-19T06:13:51;19.80;99.90
20827;DHT22;10574;52.508;13.236;2023-06-19T06:16:19;19.90;99.90
20827;DHT22;10574;52.508;13.236;2023-06-19T06:18:46;20.00;99.90
20827;DHT22;10574;52.508;13.236;2023-06-19T06:21:14;20.10;99.90
20827;DHT22;10574;52.508;13.236;2023-06-19T06:23:42;20.00;99.90
20827;DHT22;10574;52.508;13.236;2023-06-19T06:26:11;20.10;99.90
20827;DHT22;10574;52.508;13.236;2023-06-19T06:28:39;20.20;99.90
20827;DHT22;10574;52.508;13.236;2023-06-19T06:31:08;20.20;99.90
20827;DHT22;10574;52.508;13.236;2023-06-19T06:33:36;20.20;99.90
20827;DHT22;10574;52.508;13.236;2023-06-19T06:36:04;20.30;99.90
20827;DHT22;10574;52.508;13.236;2023-06-19T06:38:32;20.30;99.90
20827;DHT22;10574;52.508;13.236;2023-06-19T06:41:01;20.30;99.90
20827;DHT22;10574;52.508;13.236;2023-06-19T06:43:28;20.40;99.90
20827;DHT22;10574;52.508;13.236;2023-06-19T06:45:56;20.50;99.90
20827;DHT22;10574;52.508;13.236;2023-06-19T06:48:24;20.50;99.90
20827;DHT22;10574;52.508;13.236;2023-06-19T06:50:52;20.40;99.90
20827;DHT22;10574;52.508;13.236;2023-06-19T06:53:23;20.50;99.90
20827;DHT22;10574;52.508;13.236;2023-06-19T06:55:52;20.50;99.90
20827;DHT22;10574;52.508;13.236;2023-06-19T06:58:19;20.60;99.90
20827;DHT22;10574;52.508;13.236;2023-06-19T07:00:49;20.50;99.90
20827;DHT22;10574;52.508;13.236;2023-06-19T07:03:18;20.60;99.90
20827;DHT22;10574;52.508;13.236;2023-06-19T07:05:53;20.70;99.90
20827;DHT22;10574;52.508;13.236;2023-06-19T07:08:16;20.80;99.90
20827;DHT22;10574;52.508;13.236;2023-06-19T07:10:45;20.80;99.90
20827;DHT22;10574;52.508;13.236;2023-06-19T07:13:13;20.90;99.90
20827;DHT22;10574;52.508;13.236;2023-06-19T07:15:41;21.00;99.90
20827;DHT22;10574;52.508;13.236;2023-06-19T07:18:09;21.20;99.90
20827;DHT22;10574;52.508;13.236;2023-06-19T07:20:37;21.20;99.90
20827;DHT22;10574;52.508;13.236;2023-06-19T07:23:04;21.40;99.90
20827;DHT22;10574;52.508;13.236;2023-06-19T07:25:32;21.50;99.90
20827;DHT22;10574;52.508;13.236;2023-06-19T07:28:01;21.50;99.90
20827;DHT22;10574;52.508;13.236;2023-06-19T07:30:31;21.60;99.90
20827;DHT22;10574;52.508;13.236;2023-06-19T07:32:59;21.70;99.90
20827;DHT22;10574;52.508;13.236;2023-06-19T07:35:26;21.80;99.90
20827;DHT22;10574;52.508;13.236;2023-06-19T07:37:54;22.00;99.90
20827;DHT22;10574;52.508;13.236;2023-06-19T07:40:22;22.00;99.90
20827;DHT22;10574;52.508;13.236;2023-06-19T07:42:50;22.10;99.90
20827;DHT22;10574;52.508;13.236;2023-06-19T07:45:17;22.30;99.90
20827;DHT22;10574;52.508;13.236;2023-06-19T07:47:53;22.40;99.90
20827;DHT22;10574;52.508;13.236;2023-06-19T07:50:16;22.50;99.90
20827;DHT22;10574;52.508;13.236;2023-06-19T07:52:43;22.60;99.90
20827;DHT22;10574;52.508;13.236;2023-06-19T07:55:11;22.70;99.90
20827;DHT22;10574;52.508;13.236;2023-06-19T07:57:39;22.70;99.90
20827;DHT22;10574;52.508;13.236;2023-06-19T08:00:07;22.80;99.90
20827;DHT22;10574;52.508;13.236;2023-06-19T08:02:37;22.70;99.90
20827;DHT22;10574;52.508;13.236;2023-06-19T08:05:06;22.80;99.90
20827;DHT22;10574;52.508;13.236;2023-06-19T08:07:36;22.80;99.90
20827;DHT22;10574;52.508;13.236;2023-06-19T08:10:05;22.90;99.90
20827;DHT22;10574;52.508;13.236;2023-06-19T08:12:33;22.90;99.90
20827;DHT22;10574;52.508;13.236;2023-06-19T08:15:01;22.90;99.90
20827;DHT22;10574;52.508;13.236;2023-06-19T08:17:29;22.90;99.90
20827;DHT22;10574;52.508;13.236;2023-06-19T08:19:57;22.90;99.90
20827;DHT22;10574;52.508;13.236;2023-06-19T08:22:25;22.90;99.90
20827;DHT22;10574;52.508;13.236;2023-06-19T08:24:52;22.80;99.90
20827;DHT22;10574;52.508;13.236;2023-06-19T08:27:20;22.80;99.90
20827;DHT22;10574;52.508;13.236;2023-06-19T08:29:48;22.90;99.90
20827;DHT22;10574;52.508;13.236;2023-06-19T08:32:16;22.90;99.90
20827;DHT22;10574;52.508;13.236;2023-06-19T08:34:44;22.90;99.90
20827;DHT22;10574;52.508;13.236;2023-06-19T08:37:12;22.90;99.90
20827;DHT22;10574;52.508;13.236;2023-06-19T08:39:39;23.00;99.90
20827;DHT22;10574;52.508;13.236;2023-06-19T08:42:08;23.00;99.90
20827;DHT22;10574;52.508;13.236;2023-06-19T08:44:36;22.80;99.90
20827;DHT22;10574;52.508;13.236;2023-06-19T08:47:05;22.70;99.90
20827;DHT22;10574;52.508;13.236;2023-06-19T08:49:36;22.80;99.90
20827;DHT22;10574;52.508;13.236;2023-06-19T08:52:04;23.00;99.90
20827;DHT22;10574;52.508;13.236;2023-06-19T08:54:32;23.10;99.90
20827;DHT22;10574;52.508;13.236;2023-06-19T08:57:03;23.30;99.90
20827;DHT22;10574;52.508;13.236;2023-06-19T08:59:31;23.40;99.90
20827;DHT22;10574;52.508;13.236;2023-06-19T09:01:59;23.60;99.90
20827;DHT22;10574;52.508;13.236;2023-06-19T09:04:28;23.70;99.90
20827;DHT22;10574;52.508;13.236;2023-06-19T09:06:59;23.70;99.90
20827;DHT22;10574;52.508;13.236;2023-06-19T09:09:27;23.70;99.90
20827;DHT22;10574;52.508;13.236;2023-06-19T09:12:06;23.80;99.90
20827;DHT22;10574;52.508;13.236;2023-06-19T09:14:42;23.70;99.90
20827;DHT22;10574;52.508;13.236;2023-06-19T09:17:12;23.80;99.90
20827;DHT22;10574;52.508;13.236;2023-06-19T09:19:48;23.70;99.90
20827;DHT22;10574;52.508;13.236;2023-06-19T09:22:18;23.70;99.90
20827;DHT22;10574;52.508;13.236;2023-06-19T09:24:46;23.80;99.90
20827;DHT22;10574;52.508;13.236;2023-06-19T09:27:15;23.80;99.90
20827;DHT22;10574;52.508;13.236;2023-06-19T09:29:46;23.80;99.90
20827;DHT22;10574;52.508;13.236;2023-06-19T09:34:45;23.80;99.90
20827;DHT22;10574;52.508;13.236;2023-06-19T09:37:13;23.80;99.90
20827;DHT22;10574;52.508;13.236;2023-06-19T09:39:41;23.80;99.90
20827;DHT22;10574;52.508;13.236;2023-06-19T09:42:12;23.90;99.90
20827;DHT22;10574;52.508;13.236;2023-06-19T09:44:43;23.90;99.90
20827;DHT22;10574;52.508;13.236;2023-06-19T09:47:21;23.80;99.90
20827;DHT22;10574;52.508;13.236;2023-06-19T09:49:53;24.00;99.90
20827;DHT22;10574;52.508;13.236;2023-06-19T09:52:20;24.00;99.90
20827;DHT22;10574;52.508;13.236;2023-06-19T09:54:52;24.00;99.90
20827;DHT22;10574;52.508;13.236;2023-06-19T09:57:22;24.00;99.90
20827;DHT22;10574;52.508;13.236;2023-06-19T09:59:56;24.00;99.90
20827;DHT22;10574;52.508;13.236;2023-06-19T10:02:25;24.00;99.90
20827;DHT22;10574;52.508;13.236;2023-06-19T10:04:55;23.90;99.90
20827;DHT22;10574;52.508;13.236;2023-06-19T10:07:26;23.70;99.90
20827;DHT22;10574;52.508;13.236;2023-06-19T10:09:59;23.80;99.90
20827;DHT22;10574;52.508;13.236;2023-06-19T10:12:44;23.90;99.90
20827;DHT22;10574;52.508;13.236;2023-06-19T10:15:26;24.10;99.90
20827;DHT22;10574;52.508;13.236;2023-06-19T10:18:06;24.10;99.90
20827;DHT22;10574;52.508;13.236;2023-06-19T10:20:32;24.10;99.90
20827;DHT22;10574;52.508;13.236;2023-06-19T10:23:20;24.10;99.90
20827;DHT22;10574;52.508;13.236;2023-06-19T10:28:28;24.20;99.90
20827;DHT22;10574;52.508;13.236;2023-06-19T10:31:01;24.20;99.90
20827;DHT22;10574;52.508;13.236;2023-06-19T10:33:31;24.30;99.90
20827;DHT22;10574;52.508;13.236;2023-06-19T10:36:00;24.30;99.90
20827;DHT22;10574;52.508;13.236;2023-06-19T10:38:29;24.10;99.90
20827;DHT22;10574;52.508;13.236;2023-06-19T10:40:56;24.10;99.90
20827;DHT22;10574;52.508;13.236;2023-06-19T10:43:25;24.30;99.90
20827;DHT22;10574;52.508;13.236;2023-06-19T10:45:54;24.40;99.90
20827;DHT22;10574;52.508;13.236;2023-06-19T10:48:24;24.40;99.90
20827;DHT22;10574;52.508;13.236;2023-06-19T10:50:52;24.40;99.90
20827;DHT22;10574;52.508;13.236;2023-06-19T10:53:30;24.40;99.90
20827;DHT22;10574;52.508;13.236;2023-06-19T10:56:02;24.50;99.90
20827;DHT22;10574;52.508;13.236;2023-06-19T10:58:32;24.60;99.90
20827;DHT22;10574;52.508;13.236;2023-06-19T11:01:00;24.80;99.90
20827;DHT22;10574;52.508;13.236;2023-06-19T11:03:29;24.80;99.90
20827;DHT22;10574;52.508;13.236;2023-06-19T11:05:58;24.80;99.90
20827;DHT22;10574;52.508;13.236;2023-06-19T11:08:27;24.90;99.90
20827;DHT22;10574;52.508;13.236;2023-06-19T11:10:55;25.00;99.90
20827;DHT22;10574;52.508;13.236;2023-06-19T11:13:25;25.20;99.90
20827;DHT22;10574;52.508;13.236;2023-06-19T11:15:53;25.20;99.90
20827;DHT22;10574;52.508;13.236;2023-06-19T11:18:21;25.20;99.90
20827;DHT22;10574;52.508;13.236;2023-06-19T11:20:51;25.30;99.90
20827;DHT22;10574;52.508;13.236;2023-06-19T11:23:30;25.30;99.90
20827;DHT22;10574;52.508;13.236;2023-06-19T11:26:03;25.40;99.90
20827;DHT22;10574;52.508;13.236;2023-06-19T11:28:31;25.50;99.90
20827;DHT22;10574;52.508;13.236;2023-06-19T11:31:00;25.50;99.90
20827;DHT22;10574;52.508;13.236;2023-06-19T11:33:29;25.50;99.90
20827;DHT22;10574;52.508;13.236;2023-06-19T11:36:03;25.60;99.90
20827;DHT22;10574;52.508;13.236;2023-06-19T11:38:31;25.80;99.90
20827;DHT22;10574;52.508;13.236;2023-06-19T11:41:00;26.00;99.90
20827;DHT22;10574;52.508;13.236;2023-06-19T11:43:29;25.90;99.90
20827;DHT22;10574;52.508;13.236;2023-06-19T11:46:05;26.00;99.90
20827;DHT22;10574;52.508;13.236;2023-06-19T11:48:36;26.10;99.90
20827;DHT22;10574;52.508;13.236;2023-06-19T11:51:03;26.10;99.90
20827;DHT22;10574;52.508;13.236;2023-06-19T11:53:31;26.20;99.90
20827;DHT22;10574;52.508;13.236;2023-06-19T11:55:59;26.40;99.90
20827;DHT22;10574;52.508;13.236;2023-06-19T11:58:27;26.40;99.90
20827;DHT22;10574;52.508;13.236;2023-06-19T12:00:54;26.50;99.90
20827;DHT22;10574;52.508;13.236;2023-06-19T12:03:23;26.60;99.90
20827;DHT22;10574;52.508;13.236;2023-06-19T12:05:51;26.40;99.90
20827;DHT22;10574;52.508;13.236;2023-06-19T12:08:18;26.60;99.90
20827;DHT22;10574;52.508;13.236;2023-06-19T12:10:48;26.70;99.90
20827;DHT22;10574;52.508;13.236;2023-06-19T12:13:16;26.90;99.90
20827;DHT22;10574;52.508;13.236;2023-06-19T12:15:45;27.00;99.90
20827;DHT22;10574;52.508;13.236;2023-06-19T12:18:13;27.10;99.90
20827;DHT22;10574;52.508;13.236;2023-06-19T12:20:41;27.20;99.90
20827;DHT22;10574;52.508;13.236;2023-06-19T12:23:08;27.30;99.90
20827;DHT22;10574;52.508;13.236;2023-06-19T12:25:36;27.40;99.90
20827;DHT22;10574;52.508;13.236;2023-06-19T12:28:04;27.70;99.90
20827;DHT22;10574;52.508;13.236;2023-06-19T12:30:34;27.90;99.90
20827;DHT22;10574;52.508;13.236;2023-06-19T12:33:02;27.90;99.30
20827;DHT22;10574;52.508;13.236;2023-06-19T12:35:30;27.90;99.90
20827;DHT22;10574;52.508;13.236;2023-06-19T12:37:58;28.00;99.90
20827;DHT22;10574;52.508;13.236;2023-06-19T12:40:25;28.20;98.80
20827;DHT22;10574;52.508;13.236;2023-06-19T12:42:53;28.30;99.70
20827;DHT22;10574;52.508;13.236;2023-06-19T12:45:21;28.30;99.60
20827;DHT22;10574;52.508;13.236;2023-06-19T12:47:49;28.10;99.60
20827;DHT22;10574;52.508;13.236;2023-06-19T12:50:16;28.00;99.00
20827;DHT22;10574;52.508;13.236;2023-06-19T12:52:44;28.30;98.90
20827;DHT22;10574;52.508;13.236;2023-06-19T12:55:12;28.30;99.80
20827;DHT22;10574;52.508;13.236;2023-06-19T12:57:39;28.20;98.60
20827;DHT22;10574;52.508;13.236;2023-06-19T13:00:12;28.30;98.20
20827;DHT22;10574;52.508;13.236;2023-06-19T13:02:40;28.20;97.30
20827;DHT22;10574;52.508;13.236;2023-06-19T13:05:10;28.20;99.30
20827;DHT22;10574;52.508;13.236;2023-06-19T13:07:38;28.30;98.10
20827;DHT22;10574;52.508;13.236;2023-06-19T13:10:06;28.60;99.90
20827;DHT22;10574;52.508;13.236;2023-06-19T13:12:34;29.00;98.30
20827;DHT22;10574;52.508;13.236;2023-06-19T13:15:02;29.00;95.70
20827;DHT22;10574;52.508;13.236;2023-06-19T13:17:29;29.00;96.20
20827;DHT22;10574;52.508;13.236;2023-06-19T13:19:58;29.20;96.50
20827;DHT22;10574;52.508;13.236;2023-06-19T13:22:25;29.20;94.30
20827;DHT22;10574;52.508;13.236;2023-06-19T13:24:53;28.90;95.60
20827;DHT22;10574;52.508;13.236;2023-06-19T13:27:21;28.70;96.10
20827;DHT22;10574;52.508;13.236;2023-06-19T13:29:49;28.90;94.90
20827;DHT22;10574;52.508;13.236;2023-06-19T13:32:17;29.00;96.90
20827;DHT22;10574;52.508;13.236;2023-06-19T13:34:44;29.10;94.60
20827;DHT22;10574;52.508;13.236;2023-06-19T13:37:12;29.20;96.30
20827;DHT22;10574;52.508;13.236;2023-06-19T13:39:40;29.40;95.90
20827;DHT22;10574;52.508;13.236;2023-06-19T13:42:08;29.40;95.60
20827;DHT22;10574;52.508;13.236;2023-06-19T13:44:35;29.40;95.60
20827;DHT22;10574;52.508;13.236;2023-06-19T13:47:04;29.60;95.90
20827;DHT22;10574;52.508;13.236;2023-06-19T13:49:31;29.70;93.70
20827;DHT22;10574;52.508;13.236;2023-06-19T13:51:59;29.70;92.90
20827;DHT22;10574;52.508;13.236;2023-06-19T13:54:27;29.70;93.90
20827;DHT22;10574;52.508;13.236;2023-06-19T13:56:55;29.80;95.20
20827;DHT22;10574;52.508;13.236;2023-06-19T13:59:23;29.80;94.30
20827;DHT22;10574;52.508;13.236;2023-06-19T14:01:51;29.90;94.50
20827;DHT22;10574;52.508;13.236;2023-06-19T14:04:19;30.00;94.50
20827;DHT22;10574;52.508;13.236;2023-06-19T14:06:47;30.10;93.60
20827;DHT22;10574;52.508;13.236;2023-06-19T14:09:15;30.10;93.20
20827;DHT22;10574;52.508;13.236;2023-06-19T14:11:42;30.20;92.30
20827;DHT22;10574;52.508;13.236;2023-06-19T14:14:10;29.80;93.10
20827;DHT22;10574;52.508;13.236;2023-06-19T14:16:38;29.70;94.00
20827;DHT22;10574;52.508;13.236;2023-06-19T14:19:06;29.70;94.00
20827;DHT22;10574;52.508;13.236;2023-06-19T14:21:34;29.70;94.00
20827;DHT22;10574;52.508;13.236;2023-06-19T14:24:01;29.70;94.30
20827;DHT22;10574;52.508;13.236;2023-06-19T14:26:29;29.70;94.50
20827;DHT22;10574;52.508;13.236;2023-06-19T14:28:57;29.70;94.90
20827;DHT22;10574;52.508;13.236;2023-06-19T14:31:25;29.50;93.80
20827;DHT22;10574;52.508;13.236;2023-06-19T14:33:54;29.50;93.50
20827;DHT22;10574;52.508;13.236;2023-06-19T14:36:22;29.70;94.60
20827;DHT22;10574;52.508;13.236;2023-06-19T14:38:49;29.80;93.50
20827;DHT22;10574;52.508;13.236;2023-06-19T14:41:17;30.10;93.60
20827;DHT22;10574;52.508;13.236;2023-06-19T14:43:45;30.10;93.90
20827;DHT22;10574;52.508;13.236;2023-06-19T14:46:13;30.20;92.40
20827;DHT22;10574;52.508;13.236;2023-06-19T14:48:40;30.50;92.50
20827;DHT22;10574;52.508;13.236;2023-06-19T14:51:08;30.50;92.80
20827;DHT22;10574;52.508;13.236;2023-06-19T14:53:38;30.60;92.00
20827;DHT22;10574;52.508;13.236;2023-06-19T14:56:05;30.60;90.10
20827;DHT22;10574;52.508;13.236;2023-06-19T14:58:33;31.00;88.80
20827;DHT22;10574;52.508;13.236;2023-06-19T15:01:01;30.90;87.50
20827;DHT22;10574;52.508;13.236;2023-06-19T15:03:29;31.00;90.50
20827;DHT22;10574;52.508;13.236;2023-06-19T15:05:57;30.70;88.90
20827;DHT22;10574;52.508;13.236;2023-06-19T15:08:24;30.50;90.70
20827;DHT22;10574;52.508;13.236;2023-06-19T15:10:53;30.50;88.20
20827;DHT22;10574;52.508;13.236;2023-06-19T15:13:20;30.70;86.70
20827;DHT22;10574;52.508;13.236;2023-06-19T15:15:48;30.80;84.50
20827;DHT22;10574;52.508;13.236;2023-06-19T15:18:17;30.50;86.90
20827;DHT22;10574;52.508;13.236;2023-06-19T15:20:45;30.40;87.50
20827;DHT22;10574;52.508;13.236;2023-06-19T15:23:13;30.30;89.40
20827;DHT22;10574;52.508;13.236;2023-06-19T15:25:41;29.90;91.10
20827;DHT22;10574;52.508;13.236;2023-06-19T15:28:10;29.80;90.40
20827;DHT22;10574;52.508;13.236;2023-06-19T15:30:41;29.70;90.60